QFA190 NFTF-YSSY
Flight info
| Callsign | QFA190 |
|---|---|
| Flight time | N/A |
| Altitude | 39000 |
| Route | ANGOR1Q IBAKA B578 GURDI B451 DOLSI B450 LHI DCT ABARB DCT MARLN |
| Aircraft | A21N/M-SDE2E3FGHIRWXY/LB1 |
Departure
| Time | 2026-04-16 09:09 |
|---|---|
| Airport | Fua'amotu International Airport (NFTF) |
Arrival
| Time | N/A |
|---|---|
| Airport | Sydney Kingsford Smith International Airport (YSSY) |
| Time | Latitude | Longitude | Altitude | Speed | Heading |
|---|---|---|---|---|---|
| 2026-04-16 09:03 | -21.24397 | -175.13764 | 129 ft | 0 kts | 66° |
| 2026-04-16 09:06 | -21.24404 | -175.13782 | 123 ft | 3 kts | 66° |
| 2026-04-16 09:06 | -21.24411 | -175.13800 | 123 ft | 2 kts | 66° |
| 2026-04-16 09:06 | -21.24424 | -175.13813 | 123 ft | 2 kts | 5° |
| 2026-04-16 09:06 | -21.24426 | -175.13813 | 123 ft | 0 kts | 359° |
| 2026-04-16 09:07 | -21.24390 | -175.13860 | 126 ft | 20 kts | 279° |
| 2026-04-16 09:08 | -21.24402 | -175.13887 | 124 ft | 10 kts | 193° |
| 2026-04-16 09:08 | -21.24582 | -175.13898 | 126 ft | 31 kts | 182° |
| 2026-04-16 09:08 | -21.24712 | -175.13912 | 124 ft | 3 kts | 240° |
| 2026-04-16 09:08 | -21.24634 | -175.14051 | 125 ft | 60 kts | 302° |
| 2026-04-16 09:09 | -21.24230 | -175.14743 | 120 ft | 158 kts | 301° |
| 2026-04-16 09:09 | -21.23588 | -175.15871 | 714 ft | 192 kts | 301° |
| 2026-04-16 09:09 | -21.22835 | -175.17163 | 1536 ft | 220 kts | 301° |
| 2026-04-16 09:09 | -21.21954 | -175.18663 | 2285 ft | 255 kts | 302° |
| 2026-04-16 09:10 | -21.20974 | -175.20332 | 3415 ft | 268 kts | 302° |
| 2026-04-16 09:10 | -21.20003 | -175.21988 | 4979 ft | 264 kts | 301° |
| 2026-04-16 09:10 | -21.19046 | -175.23664 | 6468 ft | 264 kts | 297° |
| 2026-04-16 09:10 | -21.18326 | -175.25488 | 7802 ft | 267 kts | 285° |
| 2026-04-16 09:11 | -21.18116 | -175.27479 | 9185 ft | 271 kts | 265° |
| 2026-04-16 09:11 | -21.18643 | -175.29431 | 10480 ft | 278 kts | 245° |
| 2026-04-16 09:11 | -21.19628 | -175.31307 | 11198 ft | 307 kts | 239° |
| 2026-04-16 09:11 | -21.20853 | -175.33336 | 11667 ft | 340 kts | 238° |
| 2026-04-16 09:12 | -21.22218 | -175.35548 | 12170 ft | 367 kts | 238° |
| 2026-04-16 09:12 | -21.23657 | -175.37887 | 13001 ft | 381 kts | 238° |
| 2026-04-16 09:12 | -21.25129 | -175.40285 | 14029 ft | 387 kts | 238° |
| 2026-04-16 09:12 | -21.26588 | -175.42740 | 15028 ft | 391 kts | 242° |
| 2026-04-16 09:13 | -21.27804 | -175.45306 | 16101 ft | 391 kts | 247° |
| 2026-04-16 09:13 | -21.28920 | -175.47986 | 17079 ft | 395 kts | 249° |
| 2026-04-16 09:13 | -21.30023 | -175.50710 | 17920 ft | 400 kts | 249° |
| 2026-04-16 09:13 | -21.30759 | -175.52534 | 18415 ft | 404 kts | 249° |
| 2026-04-16 09:14 | -21.31883 | -175.55317 | 19060 ft | 407 kts | 249° |
| 2026-04-16 09:14 | -21.33008 | -175.58095 | 19689 ft | 411 kts | 250° |
| 2026-04-16 09:14 | -21.34153 | -175.60920 | 20298 ft | 414 kts | 250° |
| 2026-04-16 09:14 | -21.35686 | -175.64704 | 21072 ft | 418 kts | 250° |
| 2026-04-16 09:15 | -21.36471 | -175.66643 | 21450 ft | 420 kts | 250° |
| 2026-04-16 09:15 | -21.37640 | -175.69527 | 21993 ft | 422 kts | 250° |
| 2026-04-16 09:15 | -21.38802 | -175.72398 | 22488 ft | 425 kts | 250° |
| 2026-04-16 09:15 | -21.39986 | -175.75324 | 22969 ft | 428 kts | 250° |
| 2026-04-16 09:16 | -21.41175 | -175.78265 | 23421 ft | 430 kts | 250° |
| 2026-04-16 09:16 | -21.42372 | -175.81225 | 23803 ft | 432 kts | 251° |
| 2026-04-16 09:16 | -21.43560 | -175.84167 | 24140 ft | 435 kts | 250° |
| 2026-04-16 09:16 | -21.44764 | -175.87149 | 24493 ft | 436 kts | 250° |
| 2026-04-16 09:17 | -21.45974 | -175.90146 | 24840 ft | 438 kts | 250° |
| 2026-04-16 09:17 | -21.47185 | -175.93148 | 25201 ft | 439 kts | 250° |
| 2026-04-16 09:17 | -21.48405 | -175.96176 | 25580 ft | 440 kts | 250° |
| 2026-04-16 09:17 | -21.49620 | -175.99190 | 26108 ft | 438 kts | 250° |
| 2026-04-16 09:18 | -21.50826 | -176.02184 | 26724 ft | 434 kts | 251° |
| 2026-04-16 09:18 | -21.52009 | -176.05124 | 27356 ft | 431 kts | 251° |
| 2026-04-16 09:18 | -21.53195 | -176.08072 | 27978 ft | 428 kts | 251° |
| 2026-04-16 09:18 | -21.54372 | -176.11003 | 28514 ft | 426 kts | 251° |
| 2026-04-16 09:19 | -21.55544 | -176.13921 | 29015 ft | 424 kts | 251° |
| 2026-04-16 09:19 | -21.56710 | -176.16828 | 29510 ft | 422 kts | 251° |
| 2026-04-16 09:19 | -21.57854 | -176.19683 | 30042 ft | 419 kts | 251° |
| 2026-04-16 09:19 | -21.59004 | -176.22551 | 30561 ft | 415 kts | 250° |
| 2026-04-16 09:20 | -21.60149 | -176.25409 | 31008 ft | 413 kts | 250° |
| 2026-04-16 09:20 | -21.61268 | -176.28205 | 31425 ft | 412 kts | 250° |
| 2026-04-16 09:20 | -21.62400 | -176.31033 | 31854 ft | 410 kts | 250° |
| 2026-04-16 09:20 | -21.63525 | -176.33848 | 32292 ft | 408 kts | 250° |
| 2026-04-16 09:21 | -21.64644 | -176.36654 | 32720 ft | 406 kts | 250° |
| 2026-04-16 09:21 | -21.65610 | -176.39496 | 33153 ft | 402 kts | 256° |
| 2026-04-16 09:21 | -21.66211 | -176.42385 | 33569 ft | 399 kts | 262° |
| 2026-04-16 09:21 | -21.66547 | -176.45350 | 33967 ft | 398 kts | 264° |
| 2026-04-16 09:22 | -21.66797 | -176.48312 | 34304 ft | 397 kts | 265° |
| 2026-04-16 09:22 | -21.67004 | -176.51270 | 34619 ft | 396 kts | 266° |
| 2026-04-16 09:22 | -21.67197 | -176.54228 | 34918 ft | 396 kts | 266° |
| 2026-04-16 09:22 | -21.67386 | -176.57148 | 35218 ft | 395 kts | 265° |
| 2026-04-16 09:23 | -21.67583 | -176.60096 | 35545 ft | 394 kts | 265° |
| 2026-04-16 09:23 | -21.67786 | -176.63035 | 35855 ft | 393 kts | 265° |
| 2026-04-16 09:23 | -21.67993 | -176.65964 | 36136 ft | 393 kts | 265° |
| 2026-04-16 09:23 | -21.68204 | -176.68902 | 36409 ft | 392 kts | 265° |
| 2026-04-16 09:24 | -21.68413 | -176.71794 | 36673 ft | 392 kts | 265° |
| 2026-04-16 09:24 | -21.68624 | -176.74716 | 36954 ft | 392 kts | 265° |
| 2026-04-16 09:24 | -21.68836 | -176.77653 | 37233 ft | 391 kts | 265° |
| 2026-04-16 09:24 | -21.69043 | -176.80543 | 37512 ft | 391 kts | 265° |
| 2026-04-16 09:25 | -21.69252 | -176.83456 | 37787 ft | 390 kts | 265° |
| 2026-04-16 09:25 | -21.69459 | -176.86369 | 38062 ft | 390 kts | 265° |
| 2026-04-16 09:25 | -21.69666 | -176.89286 | 38334 ft | 389 kts | 265° |
| 2026-04-16 09:25 | -21.69872 | -176.92184 | 38584 ft | 389 kts | 265° |
| 2026-04-16 09:26 | -21.70074 | -176.95045 | 38817 ft | 388 kts | 265° |
| 2026-04-16 09:26 | -21.70278 | -176.97946 | 38980 ft | 389 kts | 265° |
| 2026-04-16 09:26 | -21.70484 | -177.00871 | 39009 ft | 393 kts | 265° |
| 2026-04-16 09:27 | -21.70901 | -177.06813 | 39011 ft | 403 kts | 265° |
| 2026-04-16 09:27 | -21.71320 | -177.12834 | 39166 ft | 405 kts | 265° |
| 2026-04-16 09:27 | -21.71554 | -177.15812 | 38938 ft | 391 kts | 264° |
| 2026-04-16 09:28 | -21.71842 | -177.18697 | 38841 ft | 383 kts | 263° |
| 2026-04-16 09:28 | -21.72107 | -177.21504 | 39225 ft | 373 kts | 262° |
| 2026-04-16 09:28 | -21.72287 | -177.24266 | 39367 ft | 358 kts | 266° |
| 2026-04-16 09:28 | -21.72429 | -177.26966 | 38948 ft | 376 kts | 266° |
| 2026-04-16 09:29 | -21.72574 | -177.29841 | 38587 ft | 390 kts | 266° |
| 2026-04-16 09:29 | -21.72903 | -177.35657 | 38766 ft | 389 kts | 265° |
| 2026-04-16 09:29 | -21.73087 | -177.38564 | 38970 ft | 388 kts | 265° |
| 2026-04-16 09:30 | -21.73278 | -177.41455 | 39016 ft | 386 kts | 265° |
| 2026-04-16 09:30 | -21.73668 | -177.47217 | 39018 ft | 386 kts | 265° |
| 2026-04-16 09:31 | -21.74059 | -177.52966 | 39018 ft | 386 kts | 265° |
| 2026-04-16 09:31 | -21.74444 | -177.58701 | 39018 ft | 387 kts | 265° |
| 2026-04-16 09:32 | -21.74832 | -177.64529 | 39017 ft | 393 kts | 265° |
| 2026-04-16 09:32 | -21.75220 | -177.70388 | 39017 ft | 394 kts | 265° |
| 2026-04-16 09:33 | -21.75607 | -177.76273 | 39020 ft | 393 kts | 265° |
| 2026-04-16 09:33 | -21.75992 | -177.82144 | 39021 ft | 393 kts | 265° |
| 2026-04-16 09:34 | -21.76372 | -177.87982 | 39023 ft | 393 kts | 265° |
| 2026-04-16 09:34 | -21.76750 | -177.93818 | 39023 ft | 393 kts | 265° |
| 2026-04-16 09:35 | -21.77128 | -177.99683 | 39023 ft | 393 kts | 265° |
| 2026-04-16 09:35 | -21.77503 | -178.05546 | 39023 ft | 393 kts | 265° |
| 2026-04-16 09:36 | -21.77875 | -178.11381 | 39028 ft | 392 kts | 265° |
| 2026-04-16 09:36 | -21.78246 | -178.17244 | 39036 ft | 392 kts | 265° |
| 2026-04-16 09:37 | -21.78615 | -178.23099 | 39029 ft | 391 kts | 265° |
| 2026-04-16 09:37 | -21.78979 | -178.28908 | 39028 ft | 390 kts | 265° |
| 2026-04-16 09:38 | -21.79342 | -178.34741 | 39031 ft | 390 kts | 265° |
| 2026-04-16 09:38 | -21.79701 | -178.40536 | 39031 ft | 389 kts | 265° |
| 2026-04-16 09:39 | -21.80436 | -178.46299 | 39032 ft | 389 kts | 256° |
| 2026-04-16 09:39 | -21.82463 | -178.51710 | 39032 ft | 391 kts | 246° |
| 2026-04-16 09:40 | -21.84976 | -178.56870 | 39034 ft | 392 kts | 244° |
| 2026-04-16 09:40 | -21.87595 | -178.62026 | 39034 ft | 392 kts | 244° |
| 2026-04-16 09:41 | -21.90204 | -178.67192 | 39037 ft | 392 kts | 244° |
| 2026-04-16 09:41 | -21.92782 | -178.72349 | 39037 ft | 392 kts | 245° |
| 2026-04-16 09:42 | -21.95365 | -178.77542 | 39037 ft | 392 kts | 245° |
| 2026-04-16 09:42 | -21.97924 | -178.82692 | 39043 ft | 392 kts | 245° |
| 2026-04-16 09:43 | -22.00500 | -178.87882 | 39042 ft | 392 kts | 245° |
| 2026-04-16 09:43 | -22.03060 | -178.93041 | 39042 ft | 391 kts | 245° |
| 2026-04-16 09:44 | -22.05633 | -178.98233 | 39045 ft | 391 kts | 245° |
| 2026-04-16 09:44 | -22.08204 | -179.03425 | 39048 ft | 392 kts | 245° |
| 2026-04-16 09:45 | -22.10762 | -179.08596 | 39048 ft | 392 kts | 245° |
| 2026-04-16 09:45 | -22.13312 | -179.13756 | 39073 ft | 391 kts | 245° |
| 2026-04-16 09:46 | -22.15874 | -179.18946 | 39050 ft | 391 kts | 245° |
| 2026-04-16 09:46 | -22.18431 | -179.24130 | 39049 ft | 391 kts | 245° |
| 2026-04-16 09:47 | -22.20975 | -179.29296 | 39053 ft | 391 kts | 245° |
| 2026-04-16 09:47 | -22.23535 | -179.34497 | 39053 ft | 391 kts | 245° |
| 2026-04-16 09:48 | -22.26075 | -179.39663 | 39055 ft | 391 kts | 245° |
| 2026-04-16 09:48 | -22.28635 | -179.44874 | 39056 ft | 391 kts | 245° |
| 2026-04-16 09:49 | -22.31176 | -179.50052 | 39056 ft | 391 kts | 245° |
| 2026-04-16 09:49 | -22.33709 | -179.55222 | 39059 ft | 391 kts | 245° |
| 2026-04-16 09:50 | -22.36256 | -179.60422 | 39060 ft | 391 kts | 245° |
| 2026-04-16 09:50 | -22.38803 | -179.65628 | 39058 ft | 391 kts | 245° |
| 2026-04-16 09:51 | -22.41347 | -179.70835 | 39062 ft | 391 kts | 245° |
| 2026-04-16 09:51 | -22.43877 | -179.76018 | 39062 ft | 391 kts | 245° |
| 2026-04-16 09:52 | -22.46421 | -179.81234 | 39067 ft | 391 kts | 245° |
| 2026-04-16 09:52 | -22.48945 | -179.86414 | 39063 ft | 391 kts | 245° |
| 2026-04-16 09:53 | -22.51489 | -179.91641 | 39063 ft | 391 kts | 245° |
| 2026-04-16 09:53 | -22.54015 | -179.96837 | 39060 ft | 391 kts | 245° |
| 2026-04-16 09:54 | -22.56535 | 179.97973 | 39055 ft | 391 kts | 244° |
| 2026-04-16 09:54 | -22.59073 | 179.92743 | 39072 ft | 390 kts | 245° |
| 2026-04-16 09:55 | -22.61581 | 179.87569 | 39064 ft | 390 kts | 245° |
| 2026-04-16 09:55 | -22.64107 | 179.82353 | 39074 ft | 390 kts | 245° |
| 2026-04-16 09:56 | -22.66632 | 179.77132 | 39072 ft | 390 kts | 245° |
| 2026-04-16 09:56 | -22.69141 | 179.71939 | 39070 ft | 390 kts | 245° |
| 2026-04-16 09:57 | -22.71666 | 179.66709 | 39072 ft | 390 kts | 245° |
| 2026-04-16 09:57 | -22.74170 | 179.61515 | 39072 ft | 390 kts | 245° |
| 2026-04-16 09:58 | -22.76685 | 179.56294 | 39068 ft | 390 kts | 244° |
| 2026-04-16 09:58 | -22.79178 | 179.51113 | 39087 ft | 389 kts | 244° |
| 2026-04-16 09:59 | -22.81682 | 179.45904 | 39072 ft | 389 kts | 244° |
| 2026-04-16 09:59 | -22.84169 | 179.40724 | 39072 ft | 389 kts | 244° |
| 2026-04-16 10:00 | -22.86668 | 179.35514 | 39076 ft | 389 kts | 244° |
| 2026-04-16 10:00 | -22.89165 | 179.30304 | 39078 ft | 389 kts | 244° |
| 2026-04-16 10:01 | -22.92893 | 179.22514 | 39069 ft | 389 kts | 244° |
| 2026-04-16 10:01 | -22.95384 | 179.17301 | 39075 ft | 387 kts | 244° |
| 2026-04-16 10:02 | -22.97847 | 179.12144 | 39075 ft | 387 kts | 244° |
| 2026-04-16 10:02 | -23.00322 | 179.06953 | 39078 ft | 387 kts | 244° |
| 2026-04-16 10:03 | -23.02382 | 179.02629 | 39078 ft | 387 kts | 244° |
| 2026-04-16 10:03 | -23.04862 | 178.97420 | 39077 ft | 387 kts | 244° |
| 2026-04-16 10:04 | -23.07322 | 178.92247 | 39077 ft | 387 kts | 244° |
| 2026-04-16 10:04 | -23.09801 | 178.87027 | 39078 ft | 387 kts | 244° |
| 2026-04-16 10:05 | -23.12265 | 178.81835 | 39080 ft | 386 kts | 244° |
| 2026-04-16 10:05 | -23.14723 | 178.76649 | 39088 ft | 385 kts | 244° |
| 2026-04-16 10:06 | -23.17165 | 178.71492 | 39082 ft | 385 kts | 244° |
| 2026-04-16 10:06 | -23.19608 | 178.66328 | 39084 ft | 385 kts | 244° |
| 2026-04-16 10:07 | -23.22060 | 178.61137 | 39081 ft | 385 kts | 244° |
| 2026-04-16 10:07 | -23.24514 | 178.55938 | 39087 ft | 385 kts | 244° |
| 2026-04-16 10:08 | -23.26946 | 178.50781 | 39089 ft | 385 kts | 244° |
| 2026-04-16 10:08 | -23.29394 | 178.45583 | 39083 ft | 385 kts | 244° |
| 2026-04-16 10:09 | -23.31835 | 178.40396 | 39086 ft | 384 kts | 244° |
| 2026-04-16 10:09 | -23.34257 | 178.35243 | 39084 ft | 384 kts | 244° |
| 2026-04-16 10:10 | -23.36688 | 178.30065 | 39087 ft | 384 kts | 244° |
| 2026-04-16 10:10 | -23.39100 | 178.24922 | 39089 ft | 384 kts | 244° |
| 2026-04-16 10:11 | -23.41531 | 178.19734 | 39091 ft | 383 kts | 244° |
| 2026-04-16 10:11 | -23.43956 | 178.14550 | 39093 ft | 384 kts | 244° |
| 2026-04-16 10:12 | -23.46363 | 178.09401 | 39094 ft | 384 kts | 244° |
| 2026-04-16 10:12 | -23.48783 | 178.04220 | 39095 ft | 382 kts | 244° |
| 2026-04-16 10:13 | -23.51195 | 177.99050 | 39096 ft | 382 kts | 244° |
| 2026-04-16 10:13 | -23.53591 | 177.93909 | 39098 ft | 382 kts | 244° |
| 2026-04-16 10:14 | -23.56001 | 177.88731 | 39099 ft | 382 kts | 244° |
| 2026-04-16 10:14 | -23.58392 | 177.83590 | 39096 ft | 382 kts | 244° |
| 2026-04-16 10:15 | -23.60795 | 177.78415 | 39095 ft | 382 kts | 244° |
| 2026-04-16 10:15 | -23.63182 | 177.73271 | 39094 ft | 381 kts | 244° |
| 2026-04-16 10:16 | -23.65582 | 177.68093 | 39102 ft | 381 kts | 243° |
| 2026-04-16 10:16 | -23.67961 | 177.62956 | 39103 ft | 381 kts | 243° |
| 2026-04-16 10:17 | -23.70346 | 177.57799 | 39100 ft | 380 kts | 243° |
| 2026-04-16 10:17 | -23.72735 | 177.52629 | 39101 ft | 380 kts | 243° |
| 2026-04-16 10:18 | -23.75101 | 177.47501 | 39103 ft | 380 kts | 243° |
| 2026-04-16 10:18 | -23.77487 | 177.42325 | 39102 ft | 380 kts | 243° |
| 2026-04-16 10:19 | -23.79854 | 177.37186 | 39104 ft | 380 kts | 243° |
| 2026-04-16 10:19 | -23.82229 | 177.32021 | 39088 ft | 380 kts | 243° |
| 2026-04-16 10:20 | -23.84601 | 177.26860 | 39103 ft | 379 kts | 243° |
| 2026-04-16 10:20 | -23.86959 | 177.21724 | 39099 ft | 379 kts | 243° |
| 2026-04-16 10:21 | -23.89321 | 177.16572 | 39100 ft | 379 kts | 243° |
| 2026-04-16 10:21 | -23.91681 | 177.11417 | 39100 ft | 379 kts | 243° |
| 2026-04-16 10:22 | -23.94026 | 177.06293 | 39103 ft | 379 kts | 243° |
| 2026-04-16 10:22 | -23.96384 | 177.01133 | 39100 ft | 379 kts | 243° |
| 2026-04-16 10:23 | -23.98741 | 176.95969 | 39103 ft | 379 kts | 243° |
| 2026-04-16 10:23 | -24.01087 | 176.90826 | 39100 ft | 378 kts | 243° |
| 2026-04-16 10:24 | -24.03419 | 176.85706 | 39105 ft | 377 kts | 243° |
| 2026-04-16 10:24 | -24.05758 | 176.80565 | 39104 ft | 377 kts | 243° |
| 2026-04-16 10:25 | -24.08105 | 176.75401 | 39102 ft | 377 kts | 243° |
| 2026-04-16 10:25 | -24.10433 | 176.70275 | 39102 ft | 377 kts | 243° |
| 2026-04-16 10:26 | -24.12772 | 176.65117 | 39099 ft | 377 kts | 243° |
| 2026-04-16 10:26 | -24.15091 | 176.59996 | 39104 ft | 377 kts | 243° |
| 2026-04-16 10:27 | -24.17426 | 176.54837 | 39104 ft | 377 kts | 243° |
| 2026-04-16 10:27 | -24.19747 | 176.49702 | 39104 ft | 377 kts | 243° |
| 2026-04-16 10:28 | -24.22078 | 176.44539 | 39107 ft | 377 kts | 243° |
| 2026-04-16 10:28 | -24.24407 | 176.39376 | 39107 ft | 377 kts | 243° |
| 2026-04-16 10:29 | -24.26718 | 176.34244 | 39112 ft | 377 kts | 243° |
| 2026-04-16 10:29 | -24.29044 | 176.29076 | 39110 ft | 377 kts | 243° |
| 2026-04-16 10:30 | -24.31368 | 176.23906 | 39110 ft | 377 kts | 243° |
| 2026-04-16 10:30 | -24.33683 | 176.18750 | 39102 ft | 377 kts | 243° |
| 2026-04-16 10:31 | -24.35987 | 176.13613 | 39108 ft | 377 kts | 243° |
| 2026-04-16 10:31 | -24.38304 | 176.08441 | 39108 ft | 377 kts | 243° |
| 2026-04-16 10:32 | -24.40615 | 176.03277 | 39111 ft | 376 kts | 243° |
| 2026-04-16 10:32 | -24.42910 | 175.98141 | 39111 ft | 376 kts | 243° |
| 2026-04-16 10:33 | -24.45214 | 175.92982 | 39113 ft | 376 kts | 243° |
| 2026-04-16 10:33 | -24.47518 | 175.87815 | 39113 ft | 376 kts | 243° |
| 2026-04-16 10:34 | -24.49813 | 175.82664 | 39116 ft | 376 kts | 243° |
| 2026-04-16 10:34 | -24.52116 | 175.77487 | 39113 ft | 376 kts | 243° |
| 2026-04-16 10:35 | -24.54407 | 175.72334 | 39117 ft | 375 kts | 243° |
| 2026-04-16 10:35 | -24.56688 | 175.67195 | 39115 ft | 375 kts | 243° |
| 2026-04-16 10:36 | -24.58966 | 175.62060 | 39113 ft | 375 kts | 243° |
| 2026-04-16 10:36 | -24.61254 | 175.56895 | 39116 ft | 375 kts | 243° |
| 2026-04-16 10:37 | -24.63526 | 175.51759 | 39115 ft | 375 kts | 243° |
| 2026-04-16 10:37 | -24.65807 | 175.46599 | 39115 ft | 375 kts | 243° |
| 2026-04-16 10:38 | -24.68076 | 175.41458 | 39104 ft | 375 kts | 243° |
| 2026-04-16 10:38 | -24.70350 | 175.36301 | 39118 ft | 374 kts | 243° |
| 2026-04-16 10:39 | -24.72611 | 175.31169 | 39118 ft | 373 kts | 243° |
| 2026-04-16 10:39 | -24.74883 | 175.26004 | 39119 ft | 374 kts | 243° |
| 2026-04-16 10:40 | -24.77137 | 175.20876 | 39120 ft | 373 kts | 243° |
| 2026-04-16 10:40 | -24.79401 | 175.15716 | 39118 ft | 374 kts | 243° |
| 2026-04-16 10:41 | -24.81648 | 175.10592 | 39120 ft | 374 kts | 243° |
| 2026-04-16 10:41 | -24.83912 | 175.05422 | 39118 ft | 374 kts | 243° |
| 2026-04-16 10:42 | -24.86157 | 175.00291 | 39118 ft | 373 kts | 243° |
| 2026-04-16 10:42 | -24.88415 | 174.95123 | 39120 ft | 373 kts | 243° |
| 2026-04-16 10:43 | -24.90658 | 174.89984 | 39122 ft | 373 kts | 243° |
| 2026-04-16 10:43 | -24.92909 | 174.84820 | 39144 ft | 373 kts | 243° |
| 2026-04-16 10:44 | -24.95142 | 174.79693 | 39124 ft | 372 kts | 243° |
| 2026-04-16 10:44 | -24.97386 | 174.74534 | 39124 ft | 372 kts | 243° |
| 2026-04-16 10:45 | -24.99652 | 174.69443 | 39124 ft | 371 kts | 240° |
| 2026-04-16 10:45 | -25.02477 | 174.64655 | 39122 ft | 371 kts | 236° |
| 2026-04-16 10:46 | -25.05437 | 174.60015 | 39129 ft | 371 kts | 235° |
| 2026-04-16 10:46 | -25.08447 | 174.55368 | 39129 ft | 371 kts | 235° |
| 2026-04-16 10:47 | -25.11450 | 174.50719 | 39129 ft | 371 kts | 235° |
| 2026-04-16 10:47 | -25.14423 | 174.46096 | 39129 ft | 371 kts | 236° |
| 2026-04-16 10:48 | -25.17411 | 174.41438 | 39128 ft | 371 kts | 236° |
| 2026-04-16 10:48 | -25.20381 | 174.36804 | 39127 ft | 371 kts | 236° |
| 2026-04-16 10:49 | -25.23366 | 174.32142 | 39141 ft | 371 kts | 236° |
| 2026-04-16 10:49 | -25.26347 | 174.27481 | 39123 ft | 370 kts | 236° |
| 2026-04-16 10:50 | -25.29301 | 174.22859 | 39134 ft | 370 kts | 236° |
| 2026-04-16 10:50 | -25.31772 | 174.18988 | 39132 ft | 370 kts | 236° |
| 2026-04-16 10:51 | -25.34743 | 174.14331 | 39137 ft | 370 kts | 236° |
| 2026-04-16 10:51 | -25.37688 | 174.09710 | 39134 ft | 370 kts | 236° |
| 2026-04-16 10:52 | -25.41139 | 174.04289 | 39137 ft | 370 kts | 236° |
| 2026-04-16 10:52 | -25.43607 | 174.00407 | 39137 ft | 370 kts | 236° |
| 2026-04-16 10:53 | -25.46570 | 173.95745 | 39134 ft | 370 kts | 236° |
| 2026-04-16 10:53 | -25.49530 | 173.91080 | 39118 ft | 370 kts | 236° |
| 2026-04-16 10:54 | -25.52472 | 173.86442 | 39152 ft | 369 kts | 236° |
| 2026-04-16 10:54 | -25.55423 | 173.81785 | 39138 ft | 369 kts | 236° |
| 2026-04-16 10:55 | -25.58372 | 173.77124 | 39138 ft | 368 kts | 236° |
| 2026-04-16 10:55 | -25.61296 | 173.72499 | 39137 ft | 368 kts | 236° |
| 2026-04-16 10:56 | -25.64236 | 173.67845 | 39138 ft | 368 kts | 236° |
| 2026-04-16 10:56 | -25.67175 | 173.63188 | 39138 ft | 368 kts | 236° |
| 2026-04-16 10:57 | -25.70113 | 173.58527 | 39140 ft | 368 kts | 236° |
| 2026-04-16 10:57 | -25.73036 | 173.53884 | 39141 ft | 368 kts | 236° |
| 2026-04-16 10:58 | -25.75974 | 173.49214 | 39140 ft | 368 kts | 236° |
| 2026-04-16 10:58 | -25.78912 | 173.44540 | 39143 ft | 368 kts | 236° |
| 2026-04-16 10:59 | -25.81831 | 173.39891 | 39148 ft | 368 kts | 236° |
| 2026-04-16 10:59 | -25.84742 | 173.35250 | 39142 ft | 367 kts | 236° |
| 2026-04-16 11:00 | -25.87664 | 173.30586 | 39145 ft | 367 kts | 236° |
| 2026-04-16 11:00 | -25.90580 | 173.25928 | 39146 ft | 367 kts | 236° |
| 2026-04-16 11:01 | -25.93495 | 173.21267 | 39142 ft | 367 kts | 236° |
| 2026-04-16 11:01 | -25.96392 | 173.16629 | 39142 ft | 367 kts | 236° |
| 2026-04-16 11:02 | -25.99314 | 173.11947 | 39143 ft | 367 kts | 236° |
| 2026-04-16 11:02 | -26.02212 | 173.07299 | 39143 ft | 367 kts | 236° |
| 2026-04-16 11:03 | -26.05126 | 173.02620 | 39144 ft | 367 kts | 236° |
| 2026-04-16 11:04 | -26.09478 | 172.95624 | 39160 ft | 367 kts | 236° |
| 2026-04-16 11:04 | -26.12365 | 172.90977 | 39145 ft | 367 kts | 236° |
| 2026-04-16 11:05 | -26.15272 | 172.86293 | 39143 ft | 366 kts | 236° |
| 2026-04-16 11:05 | -26.18157 | 172.81640 | 39144 ft | 366 kts | 236° |
| 2026-04-16 11:06 | -26.21059 | 172.76954 | 39139 ft | 366 kts | 236° |
| 2026-04-16 11:06 | -26.23940 | 172.72298 | 39142 ft | 366 kts | 236° |
| 2026-04-16 11:07 | -26.26836 | 172.67613 | 39152 ft | 366 kts | 236° |
| 2026-04-16 11:07 | -26.29712 | 172.62956 | 39144 ft | 367 kts | 237° |
| 2026-04-16 11:08 | -26.32610 | 172.58257 | 39142 ft | 367 kts | 237° |
| 2026-04-16 11:08 | -26.35486 | 172.53590 | 39145 ft | 367 kts | 237° |
| 2026-04-16 11:09 | -26.38375 | 172.48896 | 39149 ft | 367 kts | 237° |
| 2026-04-16 11:09 | -26.41251 | 172.44220 | 39146 ft | 367 kts | 237° |
| 2026-04-16 11:10 | -26.44141 | 172.39514 | 39151 ft | 367 kts | 237° |
| 2026-04-16 11:10 | -26.47038 | 172.34795 | 39157 ft | 368 kts | 237° |
| 2026-04-16 11:11 | -26.49923 | 172.30088 | 39153 ft | 369 kts | 237° |
| 2026-04-16 11:11 | -26.52823 | 172.25352 | 39153 ft | 369 kts | 237° |
| 2026-04-16 11:12 | -26.55723 | 172.20612 | 39150 ft | 369 kts | 237° |
| 2026-04-16 11:12 | -26.58622 | 172.15869 | 39146 ft | 369 kts | 237° |
| 2026-04-16 11:13 | -26.61504 | 172.11147 | 39142 ft | 369 kts | 237° |
| 2026-04-16 11:13 | -26.64402 | 172.06395 | 39142 ft | 369 kts | 237° |
| 2026-04-16 11:14 | -26.67286 | 172.01661 | 39137 ft | 370 kts | 237° |
| 2026-04-16 11:14 | -26.70183 | 171.96901 | 39146 ft | 370 kts | 237° |
| 2026-04-16 11:15 | -26.73081 | 171.92134 | 39147 ft | 370 kts | 237° |
| 2026-04-16 11:15 | -26.75963 | 171.87389 | 39149 ft | 370 kts | 237° |
| 2026-04-16 11:16 | -26.78864 | 171.82606 | 39148 ft | 370 kts | 237° |
| 2026-04-16 11:16 | -26.81757 | 171.77832 | 39148 ft | 370 kts | 237° |
| 2026-04-16 11:17 | -26.84635 | 171.73077 | 39150 ft | 370 kts | 237° |
| 2026-04-16 11:17 | -26.87523 | 171.68302 | 39149 ft | 370 kts | 237° |
| 2026-04-16 11:18 | -26.90403 | 171.63534 | 39140 ft | 370 kts | 237° |
| 2026-04-16 11:18 | -26.93289 | 171.58752 | 39155 ft | 370 kts | 237° |
| 2026-04-16 11:19 | -26.96185 | 171.53947 | 39147 ft | 371 kts | 237° |
| 2026-04-16 11:19 | -26.99060 | 171.49171 | 39146 ft | 371 kts | 237° |
| 2026-04-16 11:20 | -27.01940 | 171.44383 | 39146 ft | 371 kts | 237° |
| 2026-04-16 11:20 | -27.04837 | 171.39562 | 39146 ft | 371 kts | 237° |
| 2026-04-16 11:21 | -27.07707 | 171.34780 | 39148 ft | 371 kts | 237° |
| 2026-04-16 11:21 | -27.10598 | 171.29957 | 39148 ft | 371 kts | 237° |
| 2026-04-16 11:22 | -27.13468 | 171.25166 | 39147 ft | 371 kts | 238° |
| 2026-04-16 11:22 | -27.16358 | 171.20335 | 39149 ft | 371 kts | 238° |
| 2026-04-16 11:23 | -27.19222 | 171.15543 | 39149 ft | 371 kts | 238° |
| 2026-04-16 11:23 | -27.22106 | 171.10710 | 39152 ft | 372 kts | 238° |
| 2026-04-16 11:24 | -27.24998 | 171.05861 | 39150 ft | 373 kts | 238° |
| 2026-04-16 11:24 | -27.27873 | 171.01033 | 39150 ft | 373 kts | 238° |
| 2026-04-16 11:25 | -27.30763 | 170.96176 | 39148 ft | 373 kts | 238° |
| 2026-04-16 11:25 | -27.33631 | 170.91350 | 39148 ft | 373 kts | 238° |
| 2026-04-16 11:26 | -27.36523 | 170.86479 | 39152 ft | 372 kts | 238° |
| 2026-04-16 11:26 | -27.39393 | 170.81639 | 39151 ft | 372 kts | 238° |
| 2026-04-16 11:27 | -27.42276 | 170.76771 | 39150 ft | 373 kts | 238° |
| 2026-04-16 11:27 | -27.45144 | 170.71925 | 39151 ft | 372 kts | 238° |
| 2026-04-16 11:28 | -27.48005 | 170.67084 | 39151 ft | 372 kts | 238° |
| 2026-04-16 11:28 | -27.50878 | 170.62218 | 39151 ft | 372 kts | 238° |
| 2026-04-16 11:29 | -27.53748 | 170.57351 | 39151 ft | 373 kts | 238° |
| 2026-04-16 11:29 | -27.56600 | 170.52509 | 39148 ft | 372 kts | 238° |
| 2026-04-16 11:30 | -27.59464 | 170.47642 | 39153 ft | 372 kts | 238° |
| 2026-04-16 11:30 | -27.62329 | 170.42768 | 39154 ft | 372 kts | 238° |
| 2026-04-16 11:31 | -27.65172 | 170.37927 | 39152 ft | 372 kts | 238° |
| 2026-04-16 11:31 | -27.68032 | 170.33050 | 39151 ft | 372 kts | 238° |
| 2026-04-16 11:32 | -27.70889 | 170.28172 | 39156 ft | 372 kts | 238° |
| 2026-04-16 11:32 | -27.73728 | 170.23321 | 39163 ft | 372 kts | 238° |
| 2026-04-16 11:33 | -27.76583 | 170.18436 | 39150 ft | 374 kts | 238° |
| 2026-04-16 11:33 | -27.79449 | 170.13526 | 39151 ft | 373 kts | 238° |
| 2026-04-16 11:34 | -27.82313 | 170.08616 | 39150 ft | 373 kts | 238° |
| 2026-04-16 11:34 | -27.85147 | 170.03752 | 39154 ft | 373 kts | 238° |
| 2026-04-16 11:35 | -27.88006 | 169.98838 | 39154 ft | 373 kts | 238° |
| 2026-04-16 11:35 | -27.90843 | 169.93956 | 39154 ft | 373 kts | 238° |
| 2026-04-16 11:36 | -27.93696 | 169.89042 | 39154 ft | 373 kts | 238° |
| 2026-04-16 11:36 | -27.96548 | 169.84123 | 39157 ft | 373 kts | 238° |
| 2026-04-16 11:37 | -27.99383 | 169.79230 | 39167 ft | 373 kts | 238° |
| 2026-04-16 11:37 | -28.01752 | 169.75134 | 39153 ft | 374 kts | 238° |
| 2026-04-16 11:38 | -28.04596 | 169.70214 | 39159 ft | 374 kts | 238° |
| 2026-04-16 11:38 | -28.07447 | 169.65276 | 39156 ft | 374 kts | 238° |
| 2026-04-16 11:39 | -28.10281 | 169.60362 | 39156 ft | 374 kts | 238° |
| 2026-04-16 11:39 | -28.13130 | 169.55416 | 39156 ft | 374 kts | 238° |
| 2026-04-16 11:40 | -28.15961 | 169.50495 | 39158 ft | 374 kts | 238° |
| 2026-04-16 11:40 | -28.18805 | 169.45547 | 39156 ft | 374 kts | 238° |
| 2026-04-16 11:41 | -28.21649 | 169.40593 | 39149 ft | 374 kts | 238° |
| 2026-04-16 11:41 | -28.24471 | 169.35671 | 39157 ft | 373 kts | 238° |
| 2026-04-16 11:42 | -28.27313 | 169.30707 | 39157 ft | 374 kts | 238° |
| 2026-04-16 11:42 | -28.30136 | 169.25772 | 39157 ft | 374 kts | 238° |
| 2026-04-16 11:43 | -28.32963 | 169.20825 | 39159 ft | 375 kts | 238° |
| 2026-04-16 11:43 | -28.35801 | 169.15853 | 39159 ft | 374 kts | 238° |
| 2026-04-16 11:44 | -28.38639 | 169.10874 | 39162 ft | 374 kts | 238° |
| 2026-04-16 11:44 | -28.41454 | 169.05931 | 39162 ft | 374 kts | 238° |
| 2026-04-16 11:45 | -28.44286 | 169.00949 | 39162 ft | 374 kts | 238° |
| 2026-04-16 11:45 | -28.47099 | 168.95999 | 39162 ft | 374 kts | 239° |
| 2026-04-16 11:46 | -28.49925 | 168.91017 | 39162 ft | 374 kts | 239° |
| 2026-04-16 11:46 | -28.52754 | 168.86026 | 39165 ft | 375 kts | 239° |
| 2026-04-16 11:47 | -28.55567 | 168.81055 | 39160 ft | 375 kts | 239° |
| 2026-04-16 11:47 | -28.58400 | 168.76045 | 39159 ft | 375 kts | 239° |
| 2026-04-16 11:48 | -28.61230 | 168.71032 | 39160 ft | 375 kts | 239° |
| 2026-04-16 11:48 | -28.64040 | 168.66050 | 39160 ft | 375 kts | 239° |
| 2026-04-16 11:49 | -28.66860 | 168.61046 | 39162 ft | 375 kts | 239° |
| 2026-04-16 11:49 | -28.69659 | 168.56070 | 39163 ft | 375 kts | 239° |
| 2026-04-16 11:50 | -28.72479 | 168.51053 | 39163 ft | 375 kts | 239° |
| 2026-04-16 11:50 | -28.75277 | 168.46068 | 39176 ft | 375 kts | 239° |
| 2026-04-16 11:51 | -28.78091 | 168.41050 | 39166 ft | 375 kts | 239° |
| 2026-04-16 11:51 | -28.80904 | 168.36027 | 39168 ft | 375 kts | 239° |
| 2026-04-16 11:52 | -28.83708 | 168.31013 | 39160 ft | 375 kts | 239° |
| 2026-04-16 11:52 | -28.86504 | 168.26009 | 39165 ft | 375 kts | 239° |
| 2026-04-16 11:53 | -28.89313 | 168.20976 | 39171 ft | 375 kts | 239° |
| 2026-04-16 11:53 | -28.92108 | 168.15960 | 39177 ft | 375 kts | 239° |
| 2026-04-16 11:54 | -28.94908 | 168.10929 | 39182 ft | 375 kts | 239° |
| 2026-04-16 11:54 | -28.97693 | 168.05920 | 39186 ft | 375 kts | 239° |
| 2026-04-16 11:55 | -29.00498 | 168.00869 | 39210 ft | 375 kts | 239° |
| 2026-04-16 11:55 | -29.03277 | 167.95856 | 39184 ft | 375 kts | 240° |
| 2026-04-16 11:56 | -29.05557 | 167.90489 | 39183 ft | 374 kts | 248° |
| 2026-04-16 11:56 | -29.07386 | 167.84942 | 39188 ft | 375 kts | 249° |
| 2026-04-16 11:57 | -29.09137 | 167.79326 | 39165 ft | 375 kts | 249° |
| 2026-04-16 11:57 | -29.10884 | 167.73694 | 39167 ft | 375 kts | 249° |
| 2026-04-16 11:58 | -29.12628 | 167.68103 | 39167 ft | 375 kts | 249° |
| 2026-04-16 11:58 | -29.14386 | 167.62481 | 39160 ft | 375 kts | 249° |
| 2026-04-16 11:59 | -29.16139 | 167.56868 | 39166 ft | 375 kts | 249° |
| 2026-04-16 11:59 | -29.17882 | 167.51279 | 39164 ft | 374 kts | 249° |
| 2026-04-16 12:00 | -29.19630 | 167.45661 | 39170 ft | 374 kts | 249° |
| 2026-04-16 12:00 | -29.21365 | 167.40077 | 39171 ft | 374 kts | 249° |
| 2026-04-16 12:01 | -29.23110 | 167.34449 | 39179 ft | 374 kts | 249° |
| 2026-04-16 12:01 | -29.24842 | 167.28854 | 39165 ft | 375 kts | 249° |
| 2026-04-16 12:02 | -29.27455 | 167.20399 | 39155 ft | 375 kts | 249° |
| 2026-04-16 12:02 | -29.29180 | 167.14803 | 39161 ft | 374 kts | 249° |
| 2026-04-16 12:03 | -29.30915 | 167.09166 | 39161 ft | 374 kts | 249° |
| 2026-04-16 12:03 | -29.32641 | 167.03548 | 39164 ft | 375 kts | 249° |
| 2026-04-16 12:04 | -29.34374 | 166.97899 | 39161 ft | 374 kts | 249° |
| 2026-04-16 12:04 | -29.36093 | 166.92286 | 39168 ft | 374 kts | 249° |
| 2026-04-16 12:05 | -29.37817 | 166.86647 | 39165 ft | 374 kts | 249° |
| 2026-04-16 12:05 | -29.39538 | 166.81006 | 39171 ft | 374 kts | 249° |
| 2026-04-16 12:06 | -29.41257 | 166.75362 | 39164 ft | 374 kts | 249° |
| 2026-04-16 12:06 | -29.42963 | 166.69752 | 39163 ft | 374 kts | 249° |
| 2026-04-16 12:07 | -29.44677 | 166.64108 | 39175 ft | 374 kts | 250° |
| 2026-04-16 12:07 | -29.46378 | 166.58496 | 39165 ft | 375 kts | 250° |
| 2026-04-16 12:08 | -29.48091 | 166.52835 | 39165 ft | 375 kts | 250° |
| 2026-04-16 12:08 | -29.49800 | 166.47176 | 39159 ft | 374 kts | 250° |
| 2026-04-16 12:09 | -29.51504 | 166.41524 | 39162 ft | 374 kts | 250° |
| 2026-04-16 12:09 | -29.53195 | 166.35906 | 39169 ft | 374 kts | 250° |
| 2026-04-16 12:10 | -29.54895 | 166.30246 | 39165 ft | 374 kts | 250° |
| 2026-04-16 12:10 | -29.56592 | 166.24589 | 39163 ft | 374 kts | 250° |
| 2026-04-16 12:11 | -29.58279 | 166.18956 | 39167 ft | 374 kts | 250° |
| 2026-04-16 12:11 | -29.59973 | 166.13288 | 39150 ft | 374 kts | 250° |
| 2026-04-16 12:12 | -29.61652 | 166.07659 | 39163 ft | 373 kts | 250° |
| 2026-04-16 12:12 | -29.63335 | 166.02007 | 39165 ft | 373 kts | 250° |
| 2026-04-16 12:13 | -29.65008 | 165.96381 | 39188 ft | 373 kts | 250° |
| 2026-04-16 12:13 | -29.66690 | 165.90716 | 39165 ft | 374 kts | 250° |
| 2026-04-16 12:14 | -29.68366 | 165.85057 | 39164 ft | 374 kts | 250° |
| 2026-04-16 12:14 | -29.70045 | 165.79382 | 39165 ft | 374 kts | 250° |
| 2026-04-16 12:15 | -29.71712 | 165.73734 | 39170 ft | 374 kts | 250° |
| 2026-04-16 12:15 | -29.73373 | 165.68098 | 39170 ft | 373 kts | 250° |
| 2026-04-16 12:16 | -29.75035 | 165.62449 | 39163 ft | 373 kts | 250° |
| 2026-04-16 12:16 | -29.76704 | 165.56765 | 39165 ft | 373 kts | 250° |
| 2026-04-16 12:17 | -29.78359 | 165.51119 | 39162 ft | 373 kts | 250° |
| 2026-04-16 12:17 | -29.80013 | 165.45468 | 39165 ft | 373 kts | 250° |
| 2026-04-16 12:18 | -29.81671 | 165.39789 | 39162 ft | 373 kts | 250° |
| 2026-04-16 12:18 | -29.83319 | 165.34138 | 39163 ft | 373 kts | 250° |
| 2026-04-16 12:19 | -29.84971 | 165.28463 | 39166 ft | 373 kts | 250° |
| 2026-04-16 12:19 | -29.86614 | 165.22808 | 39169 ft | 373 kts | 250° |
| 2026-04-16 12:20 | -29.88266 | 165.17110 | 39160 ft | 373 kts | 250° |
| 2026-04-16 12:20 | -29.89902 | 165.11458 | 39169 ft | 373 kts | 250° |
| 2026-04-16 12:21 | -29.91547 | 165.05766 | 39154 ft | 373 kts | 250° |
| 2026-04-16 12:21 | -29.93186 | 165.00082 | 39165 ft | 373 kts | 250° |
| 2026-04-16 12:22 | -29.94813 | 164.94431 | 39158 ft | 372 kts | 250° |
| 2026-04-16 12:22 | -29.96446 | 164.88750 | 39165 ft | 372 kts | 250° |
| 2026-04-16 12:23 | -29.98065 | 164.83107 | 39162 ft | 373 kts | 250° |
| 2026-04-16 12:23 | -29.99694 | 164.77418 | 39166 ft | 373 kts | 250° |
| 2026-04-16 12:24 | -30.01311 | 164.71758 | 39165 ft | 373 kts | 250° |
| 2026-04-16 12:24 | -30.02932 | 164.66077 | 39164 ft | 372 kts | 250° |
| 2026-04-16 12:25 | -30.04548 | 164.60401 | 39186 ft | 372 kts | 250° |
| 2026-04-16 12:25 | -30.06155 | 164.54750 | 39160 ft | 372 kts | 250° |
| 2026-04-16 12:26 | -30.07768 | 164.49064 | 39162 ft | 372 kts | 250° |
| 2026-04-16 12:26 | -30.09368 | 164.43415 | 39162 ft | 372 kts | 250° |
| 2026-04-16 12:27 | -30.10976 | 164.37726 | 39161 ft | 372 kts | 250° |
| 2026-04-16 12:27 | -30.12575 | 164.32059 | 39164 ft | 372 kts | 250° |
| 2026-04-16 12:28 | -30.14179 | 164.26365 | 39159 ft | 371 kts | 250° |
| 2026-04-16 12:28 | -30.15771 | 164.20701 | 39161 ft | 371 kts | 250° |
| 2026-04-16 12:29 | -30.17365 | 164.15018 | 39154 ft | 371 kts | 250° |
| 2026-04-16 12:29 | -30.18692 | 164.10281 | 39161 ft | 371 kts | 250° |
| 2026-04-16 12:30 | -30.20273 | 164.04630 | 39165 ft | 371 kts | 250° |
| 2026-04-16 12:30 | -30.21864 | 163.98928 | 39151 ft | 371 kts | 250° |
| 2026-04-16 12:31 | -30.23440 | 163.93272 | 39162 ft | 371 kts | 251° |
| 2026-04-16 12:31 | -30.25021 | 163.87588 | 39157 ft | 371 kts | 250° |
| 2026-04-16 12:32 | -30.26601 | 163.81895 | 39165 ft | 371 kts | 250° |
| 2026-04-16 12:32 | -30.28170 | 163.76232 | 39160 ft | 371 kts | 250° |
| 2026-04-16 12:33 | -30.29746 | 163.70532 | 39159 ft | 371 kts | 250° |
| 2026-04-16 12:33 | -30.31311 | 163.64862 | 39138 ft | 371 kts | 251° |
| 2026-04-16 12:34 | -30.32883 | 163.59156 | 39162 ft | 371 kts | 251° |
| 2026-04-16 12:34 | -30.34443 | 163.53482 | 39162 ft | 371 kts | 251° |
| 2026-04-16 12:35 | -30.36011 | 163.47770 | 39162 ft | 371 kts | 251° |
| 2026-04-16 12:35 | -30.37563 | 163.42101 | 39162 ft | 371 kts | 251° |
| 2026-04-16 12:36 | -30.39119 | 163.36410 | 39163 ft | 371 kts | 251° |
| 2026-04-16 12:36 | -30.40679 | 163.30696 | 39162 ft | 371 kts | 251° |
| 2026-04-16 12:37 | -30.42227 | 163.25011 | 39159 ft | 371 kts | 251° |
| 2026-04-16 12:37 | -30.43784 | 163.19282 | 39157 ft | 371 kts | 251° |
| 2026-04-16 12:38 | -30.45327 | 163.13596 | 39161 ft | 371 kts | 251° |
| 2026-04-16 12:38 | -30.46876 | 163.07877 | 39155 ft | 371 kts | 251° |
| 2026-04-16 12:39 | -30.48412 | 163.02193 | 39161 ft | 371 kts | 251° |
| 2026-04-16 12:39 | -30.49984 | 162.96485 | 39153 ft | 371 kts | 250° |
| 2026-04-16 12:40 | -30.51581 | 162.90830 | 39156 ft | 371 kts | 251° |
| 2026-04-16 12:40 | -30.53190 | 162.85139 | 39156 ft | 371 kts | 251° |
| 2026-04-16 12:41 | -30.54795 | 162.79443 | 39160 ft | 370 kts | 251° |
| 2026-04-16 12:41 | -30.56380 | 162.73791 | 39159 ft | 370 kts | 251° |
| 2026-04-16 12:42 | -30.57976 | 162.68091 | 39158 ft | 370 kts | 251° |
| 2026-04-16 12:42 | -30.59559 | 162.62424 | 39158 ft | 370 kts | 251° |
| 2026-04-16 12:43 | -30.61150 | 162.56720 | 39170 ft | 370 kts | 251° |
| 2026-04-16 12:43 | -30.62723 | 162.51068 | 39155 ft | 369 kts | 251° |
| 2026-04-16 12:44 | -30.64301 | 162.45388 | 39152 ft | 369 kts | 251° |
| 2026-04-16 12:44 | -30.65867 | 162.39741 | 39153 ft | 369 kts | 251° |
| 2026-04-16 12:45 | -30.67442 | 162.34052 | 39158 ft | 369 kts | 251° |
| 2026-04-16 12:45 | -30.69002 | 162.28405 | 39153 ft | 369 kts | 251° |
| 2026-04-16 12:46 | -30.70570 | 162.22719 | 39147 ft | 368 kts | 251° |
| 2026-04-16 12:46 | -30.72130 | 162.17050 | 39156 ft | 368 kts | 251° |
| 2026-04-16 12:47 | -30.73681 | 162.11403 | 39151 ft | 368 kts | 251° |
| 2026-04-16 12:47 | -30.75234 | 162.05740 | 39152 ft | 368 kts | 251° |
| 2026-04-16 12:48 | -30.76788 | 162.00062 | 39149 ft | 368 kts | 251° |
| 2026-04-16 12:48 | -30.78330 | 161.94416 | 39150 ft | 368 kts | 251° |
| 2026-04-16 12:49 | -30.79879 | 161.88732 | 39148 ft | 368 kts | 251° |
| 2026-04-16 12:49 | -30.81416 | 161.83085 | 39145 ft | 368 kts | 251° |
| 2026-04-16 12:50 | -30.82961 | 161.77396 | 39146 ft | 368 kts | 251° |
| 2026-04-16 12:50 | -30.84490 | 161.71754 | 39146 ft | 368 kts | 251° |
| 2026-04-16 12:51 | -30.86032 | 161.66053 | 39146 ft | 368 kts | 251° |
| 2026-04-16 12:51 | -30.87559 | 161.60399 | 39146 ft | 368 kts | 251° |
| 2026-04-16 12:52 | -30.89095 | 161.54699 | 39135 ft | 368 kts | 252° |
| 2026-04-16 12:52 | -30.90622 | 161.49023 | 39143 ft | 367 kts | 252° |
| 2026-04-16 12:53 | -30.92135 | 161.43383 | 39144 ft | 367 kts | 252° |
| 2026-04-16 12:53 | -30.93660 | 161.37694 | 39147 ft | 367 kts | 252° |
| 2026-04-16 12:54 | -30.95169 | 161.32049 | 39150 ft | 367 kts | 252° |
| 2026-04-16 12:54 | -30.96689 | 161.26354 | 39153 ft | 367 kts | 252° |
| 2026-04-16 12:55 | -30.98198 | 161.20689 | 39134 ft | 367 kts | 252° |
| 2026-04-16 12:55 | -30.99710 | 161.15000 | 39144 ft | 366 kts | 252° |
| 2026-04-16 12:56 | -31.01207 | 161.09356 | 39143 ft | 366 kts | 252° |
| 2026-04-16 12:56 | -31.02710 | 161.03680 | 39143 ft | 366 kts | 252° |
| 2026-04-16 12:57 | -31.04211 | 160.98000 | 39140 ft | 366 kts | 252° |
| 2026-04-16 12:57 | -31.05700 | 160.92354 | 39141 ft | 366 kts | 252° |
| 2026-04-16 12:58 | -31.07196 | 160.86671 | 39138 ft | 366 kts | 252° |
| 2026-04-16 12:58 | -31.08678 | 160.81032 | 39141 ft | 364 kts | 252° |
| 2026-04-16 12:59 | -31.10160 | 160.75377 | 39141 ft | 364 kts | 252° |
| 2026-04-16 13:00 | -31.12374 | 160.66912 | 39140 ft | 363 kts | 252° |
| 2026-04-16 13:00 | -31.13840 | 160.61295 | 39142 ft | 364 kts | 252° |
| 2026-04-16 13:01 | -31.15315 | 160.55631 | 39139 ft | 364 kts | 252° |
| 2026-04-16 13:01 | -31.16787 | 160.49966 | 39137 ft | 363 kts | 253° |
| 2026-04-16 13:02 | -31.18242 | 160.44353 | 39140 ft | 363 kts | 253° |
| 2026-04-16 13:02 | -31.19705 | 160.38701 | 39134 ft | 363 kts | 253° |
| 2026-04-16 13:03 | -31.21154 | 160.33092 | 39133 ft | 363 kts | 253° |
| 2026-04-16 13:03 | -31.22611 | 160.27441 | 39134 ft | 362 kts | 253° |
| 2026-04-16 13:04 | -31.24060 | 160.21808 | 39137 ft | 362 kts | 253° |
| 2026-04-16 13:04 | -31.25514 | 160.16149 | 39133 ft | 362 kts | 253° |
| 2026-04-16 13:05 | -31.26951 | 160.10538 | 39132 ft | 361 kts | 253° |
| 2026-04-16 13:05 | -31.28395 | 160.04892 | 39131 ft | 361 kts | 253° |
| 2026-04-16 13:06 | -31.29826 | 159.99285 | 39135 ft | 361 kts | 253° |
| 2026-04-16 13:06 | -31.31258 | 159.93665 | 39132 ft | 362 kts | 253° |
| 2026-04-16 13:07 | -31.32697 | 159.88001 | 39128 ft | 362 kts | 253° |
| 2026-04-16 13:07 | -31.34130 | 159.82354 | 39126 ft | 361 kts | 253° |
| 2026-04-16 13:08 | -31.35557 | 159.76717 | 39127 ft | 361 kts | 253° |
| 2026-04-16 13:08 | -31.36974 | 159.71111 | 39127 ft | 361 kts | 253° |
| 2026-04-16 13:09 | -31.38395 | 159.65472 | 39127 ft | 361 kts | 253° |
| 2026-04-16 13:09 | -31.39806 | 159.59865 | 39124 ft | 361 kts | 253° |
| 2026-04-16 13:10 | -31.41223 | 159.54223 | 39124 ft | 361 kts | 254° |
| 2026-04-16 13:10 | -31.42638 | 159.48578 | 39123 ft | 360 kts | 254° |
| 2026-04-16 13:11 | -31.44038 | 159.42980 | 39122 ft | 359 kts | 254° |
| 2026-04-16 13:11 | -31.45442 | 159.37356 | 39133 ft | 359 kts | 254° |
| 2026-04-16 13:12 | -31.46835 | 159.31760 | 39127 ft | 360 kts | 254° |
| 2026-04-16 13:12 | -31.48241 | 159.26104 | 39127 ft | 360 kts | 254° |
| 2026-04-16 13:13 | -31.49632 | 159.20496 | 39128 ft | 360 kts | 254° |
| 2026-04-16 13:13 | -31.51028 | 159.14859 | 39129 ft | 359 kts | 254° |
| 2026-04-16 13:14 | -31.52420 | 159.09227 | 39129 ft | 359 kts | 254° |
| 2026-04-16 13:14 | -31.54113 | 159.03734 | 39129 ft | 359 kts | 251° |
| 2026-04-16 13:15 | -31.55946 | 158.98276 | 39128 ft | 360 kts | 250° |
| 2026-04-16 13:15 | -31.57799 | 158.92843 | 39127 ft | 360 kts | 250° |
| 2026-04-16 13:16 | -31.59648 | 158.87410 | 39126 ft | 360 kts | 250° |
| 2026-04-16 13:16 | -31.61500 | 158.81946 | 39120 ft | 359 kts | 250° |
| 2026-04-16 13:17 | -31.63032 | 158.77412 | 39118 ft | 359 kts | 250° |
| 2026-04-16 13:17 | -31.65168 | 158.71079 | 39114 ft | 358 kts | 250° |
| 2026-04-16 13:18 | -31.66696 | 158.66541 | 39115 ft | 358 kts | 251° |
| 2026-04-16 13:18 | -31.68829 | 158.60195 | 39113 ft | 358 kts | 251° |
| 2026-04-16 13:19 | -31.70357 | 158.55644 | 39108 ft | 358 kts | 251° |
| 2026-04-16 13:19 | -31.72174 | 158.50222 | 39110 ft | 358 kts | 251° |
| 2026-04-16 13:20 | -31.74003 | 158.44755 | 39113 ft | 358 kts | 251° |
| 2026-04-16 13:20 | -31.75815 | 158.39330 | 39110 ft | 358 kts | 251° |
| 2026-04-16 13:21 | -31.77641 | 158.33855 | 39124 ft | 358 kts | 251° |
| 2026-04-16 13:21 | -31.79450 | 158.28421 | 39107 ft | 359 kts | 251° |
| 2026-04-16 13:22 | -31.81272 | 158.22939 | 39109 ft | 359 kts | 251° |
| 2026-04-16 13:22 | -31.83094 | 158.17447 | 39107 ft | 359 kts | 251° |
| 2026-04-16 13:23 | -31.84904 | 158.11984 | 39107 ft | 359 kts | 251° |
| 2026-04-16 13:23 | -31.86705 | 158.06538 | 39104 ft | 359 kts | 251° |
| 2026-04-16 13:24 | -31.88514 | 158.01057 | 39106 ft | 359 kts | 251° |
| 2026-04-16 13:24 | -31.90320 | 157.95578 | 39104 ft | 359 kts | 251° |
| 2026-04-16 13:25 | -31.92123 | 157.90096 | 39101 ft | 359 kts | 251° |
| 2026-04-16 13:25 | -31.93915 | 157.84639 | 39096 ft | 358 kts | 251° |
| 2026-04-16 13:26 | -31.95710 | 157.79166 | 39109 ft | 358 kts | 251° |
| 2026-04-16 13:26 | -31.97500 | 157.73699 | 39102 ft | 359 kts | 251° |
| 2026-04-16 13:27 | -31.99299 | 157.68193 | 39097 ft | 359 kts | 251° |
| 2026-04-16 13:27 | -32.01081 | 157.62728 | 39097 ft | 359 kts | 251° |
| 2026-04-16 13:28 | -32.02872 | 157.57229 | 39097 ft | 359 kts | 251° |
| 2026-04-16 13:28 | -32.04661 | 157.51727 | 39088 ft | 359 kts | 252° |
| 2026-04-16 13:29 | -32.06436 | 157.46258 | 39095 ft | 358 kts | 252° |
| 2026-04-16 13:29 | -32.08220 | 157.40751 | 39092 ft | 358 kts | 252° |
| 2026-04-16 13:30 | -32.09990 | 157.35280 | 39092 ft | 358 kts | 252° |
| 2026-04-16 13:30 | -32.11755 | 157.29812 | 39099 ft | 358 kts | 252° |
| 2026-04-16 13:31 | -32.13532 | 157.24299 | 39093 ft | 359 kts | 252° |
| 2026-04-16 13:31 | -32.15294 | 157.18824 | 39083 ft | 358 kts | 252° |
| 2026-04-16 13:32 | -32.17058 | 157.13332 | 39088 ft | 358 kts | 252° |
| 2026-04-16 13:32 | -32.18826 | 157.07818 | 39087 ft | 358 kts | 252° |
| 2026-04-16 13:33 | -32.20580 | 157.02339 | 39083 ft | 358 kts | 252° |
| 2026-04-16 13:33 | -32.22342 | 156.96824 | 39086 ft | 358 kts | 252° |
| 2026-04-16 13:34 | -32.24103 | 156.91302 | 39080 ft | 358 kts | 252° |
| 2026-04-16 13:34 | -32.25846 | 156.85828 | 39082 ft | 358 kts | 252° |
| 2026-04-16 13:35 | -32.27603 | 156.80301 | 39085 ft | 358 kts | 252° |
| 2026-04-16 13:35 | -32.29346 | 156.74808 | 39079 ft | 359 kts | 252° |
| 2026-04-16 13:36 | -32.31099 | 156.69274 | 39079 ft | 359 kts | 252° |
| 2026-04-16 13:36 | -32.32848 | 156.63744 | 39074 ft | 359 kts | 252° |
| 2026-04-16 13:37 | -32.34582 | 156.58248 | 39074 ft | 359 kts | 252° |
| 2026-04-16 13:37 | -32.36328 | 156.52709 | 39077 ft | 358 kts | 253° |
| 2026-04-16 13:38 | -32.38059 | 156.47204 | 39072 ft | 358 kts | 253° |
| 2026-04-16 13:38 | -32.39797 | 156.41670 | 39075 ft | 358 kts | 253° |
| 2026-04-16 13:39 | -32.41533 | 156.36128 | 39071 ft | 358 kts | 253° |
| 2026-04-16 13:39 | -32.43257 | 156.30617 | 39070 ft | 359 kts | 253° |
| 2026-04-16 13:40 | -32.44989 | 156.25074 | 39067 ft | 359 kts | 253° |
| 2026-04-16 13:40 | -32.46724 | 156.19506 | 39065 ft | 359 kts | 253° |
| 2026-04-16 13:41 | -32.48443 | 156.13984 | 39064 ft | 359 kts | 253° |
| 2026-04-16 13:41 | -32.50167 | 156.08435 | 39061 ft | 358 kts | 253° |
| 2026-04-16 13:42 | -32.51881 | 156.02907 | 39059 ft | 358 kts | 253° |
| 2026-04-16 13:42 | -32.53599 | 155.97354 | 39059 ft | 358 kts | 253° |
| 2026-04-16 13:43 | -32.55314 | 155.91803 | 39051 ft | 358 kts | 253° |
| 2026-04-16 13:43 | -32.57017 | 155.86284 | 39053 ft | 358 kts | 253° |
| 2026-04-16 13:44 | -32.58732 | 155.80712 | 39054 ft | 358 kts | 253° |
| 2026-04-16 13:44 | -32.60433 | 155.75174 | 39055 ft | 358 kts | 253° |
| 2026-04-16 13:45 | -32.62139 | 155.69613 | 39050 ft | 358 kts | 253° |
| 2026-04-16 13:45 | -32.63833 | 155.64081 | 39049 ft | 358 kts | 253° |
| 2026-04-16 13:46 | -32.65536 | 155.58507 | 39041 ft | 358 kts | 253° |
| 2026-04-16 13:46 | -32.67237 | 155.52934 | 39044 ft | 358 kts | 253° |
| 2026-04-16 13:47 | -32.68924 | 155.47393 | 39045 ft | 358 kts | 253° |
| 2026-04-16 13:47 | -32.70618 | 155.41817 | 39044 ft | 358 kts | 254° |
| 2026-04-16 13:48 | -32.72300 | 155.36276 | 39062 ft | 358 kts | 254° |
| 2026-04-16 13:48 | -32.73990 | 155.30693 | 39044 ft | 358 kts | 254° |
| 2026-04-16 13:49 | -32.75664 | 155.25155 | 39040 ft | 358 kts | 254° |
| 2026-04-16 13:49 | -32.77352 | 155.19561 | 39045 ft | 358 kts | 254° |
| 2026-04-16 13:50 | -32.79025 | 155.14005 | 39028 ft | 358 kts | 254° |
| 2026-04-16 13:50 | -32.80706 | 155.08414 | 39045 ft | 358 kts | 254° |
| 2026-04-16 13:51 | -32.82375 | 155.02853 | 39036 ft | 358 kts | 254° |
| 2026-04-16 13:51 | -32.84053 | 154.97251 | 39023 ft | 358 kts | 254° |
| 2026-04-16 13:52 | -32.85955 | 154.91793 | 39033 ft | 361 kts | 249° |
| 2026-04-16 13:52 | -32.88213 | 154.86436 | 39029 ft | 362 kts | 249° |
| 2026-04-16 13:53 | -32.90483 | 154.81121 | 39023 ft | 362 kts | 249° |
| 2026-04-16 13:53 | -32.92771 | 154.75771 | 39024 ft | 362 kts | 249° |
| 2026-04-16 13:54 | -32.95055 | 154.70425 | 39020 ft | 362 kts | 249° |
| 2026-04-16 13:54 | -32.97325 | 154.65104 | 39021 ft | 362 kts | 249° |
| 2026-04-16 13:55 | -32.99602 | 154.59760 | 39020 ft | 361 kts | 249° |
| 2026-04-16 13:55 | -33.01860 | 154.54452 | 39020 ft | 361 kts | 249° |
| 2026-04-16 13:56 | -33.04130 | 154.49106 | 39021 ft | 361 kts | 249° |
| 2026-04-16 13:56 | -33.06404 | 154.43743 | 39018 ft | 361 kts | 249° |
| 2026-04-16 13:57 | -33.08657 | 154.38422 | 39018 ft | 361 kts | 249° |
| 2026-04-16 13:57 | -33.10912 | 154.33091 | 39014 ft | 361 kts | 249° |
| 2026-04-16 13:58 | -33.14301 | 154.25058 | 39015 ft | 360 kts | 249° |
| 2026-04-16 13:58 | -33.16543 | 154.19735 | 39012 ft | 360 kts | 249° |
| 2026-04-16 13:59 | -33.18798 | 154.14373 | 39012 ft | 360 kts | 249° |
| 2026-04-16 13:59 | -33.21048 | 154.09015 | 39010 ft | 360 kts | 249° |
| 2026-04-16 14:00 | -33.23295 | 154.03655 | 39001 ft | 360 kts | 249° |
| 2026-04-16 14:00 | -33.25528 | 153.98321 | 39007 ft | 360 kts | 249° |
| 2026-04-16 14:01 | -33.27758 | 153.92987 | 38938 ft | 357 kts | 250° |
| 2026-04-16 14:01 | -33.28855 | 153.90364 | 38422 ft | 351 kts | 250° |
| 2026-04-16 14:01 | -33.29947 | 153.87749 | 37498 ft | 351 kts | 250° |
| 2026-04-16 14:02 | -33.31027 | 153.85151 | 36416 ft | 355 kts | 249° |
| 2026-04-16 14:02 | -33.32137 | 153.82477 | 35269 ft | 362 kts | 249° |
| 2026-04-16 14:02 | -33.33270 | 153.79748 | 34119 ft | 369 kts | 249° |
| 2026-04-16 14:02 | -33.34427 | 153.76963 | 32747 ft | 376 kts | 248° |
| 2026-04-16 14:03 | -33.35593 | 153.74150 | 31191 ft | 388 kts | 248° |
| 2026-04-16 14:03 | -33.36813 | 153.71209 | 29553 ft | 400 kts | 247° |
| 2026-04-16 14:03 | -33.38069 | 153.68186 | 28064 ft | 406 kts | 247° |
| 2026-04-16 14:03 | -33.39307 | 153.65213 | 27491 ft | 391 kts | 246° |
| 2026-04-16 14:04 | -33.40516 | 153.62303 | 26816 ft | 391 kts | 247° |
| 2026-04-16 14:04 | -33.41719 | 153.59392 | 26099 ft | 397 kts | 246° |
| 2026-04-16 14:04 | -33.42959 | 153.56392 | 25344 ft | 401 kts | 246° |
| 2026-04-16 14:04 | -33.44206 | 153.53372 | 24593 ft | 407 kts | 246° |
| 2026-04-16 14:05 | -33.45477 | 153.50287 | 24335 ft | 427 kts | 246° |
| 2026-04-16 14:05 | -33.46807 | 153.47058 | 24093 ft | 434 kts | 246° |
| 2026-04-16 14:05 | -33.48148 | 153.43807 | 23863 ft | 435 kts | 246° |
| 2026-04-16 14:05 | -33.49486 | 153.40560 | 23655 ft | 434 kts | 246° |
| 2026-04-16 14:06 | -33.50802 | 153.37364 | 23403 ft | 432 kts | 246° |
| 2026-04-16 14:06 | -33.52127 | 153.34142 | 23135 ft | 430 kts | 246° |
| 2026-04-16 14:06 | -33.53006 | 153.32001 | 22950 ft | 429 kts | 246° |
| 2026-04-16 14:06 | -33.54768 | 153.27706 | 22586 ft | 428 kts | 246° |
| 2026-04-16 14:07 | -33.56064 | 153.24541 | 22343 ft | 427 kts | 246° |
| 2026-04-16 14:07 | -33.56950 | 153.22378 | 22158 ft | 426 kts | 246° |
| 2026-04-16 14:07 | -33.58240 | 153.19225 | 21902 ft | 425 kts | 246° |
| 2026-04-16 14:07 | -33.59545 | 153.16031 | 21654 ft | 424 kts | 246° |
| 2026-04-16 14:08 | -33.60841 | 153.12856 | 21387 ft | 423 kts | 247° |
| 2026-04-16 14:08 | -33.62135 | 153.09683 | 21135 ft | 422 kts | 247° |
| 2026-04-16 14:08 | -33.63843 | 153.05490 | 20801 ft | 421 kts | 247° |
| 2026-04-16 14:08 | -33.64697 | 153.03393 | 20661 ft | 420 kts | 247° |
| 2026-04-16 14:09 | -33.65979 | 153.00240 | 20413 ft | 419 kts | 247° |
| 2026-04-16 14:09 | -33.67262 | 152.97083 | 20168 ft | 418 kts | 247° |
| 2026-04-16 14:09 | -33.68526 | 152.93971 | 19931 ft | 417 kts | 247° |
| 2026-04-16 14:09 | -33.69798 | 152.90835 | 19688 ft | 416 kts | 247° |
| 2026-04-16 14:10 | -33.71070 | 152.87694 | 19443 ft | 416 kts | 247° |
| 2026-04-16 14:10 | -33.72320 | 152.84609 | 19213 ft | 415 kts | 247° |
| 2026-04-16 14:10 | -33.73587 | 152.81474 | 18973 ft | 414 kts | 247° |
| 2026-04-16 14:10 | -33.74849 | 152.78353 | 18741 ft | 414 kts | 247° |
| 2026-04-16 14:11 | -33.76105 | 152.75241 | 18510 ft | 413 kts | 247° |
| 2026-04-16 14:11 | -33.77345 | 152.72167 | 18280 ft | 412 kts | 247° |
| 2026-04-16 14:11 | -33.78598 | 152.69058 | 18018 ft | 411 kts | 247° |
| 2026-04-16 14:11 | -33.79847 | 152.65956 | 17769 ft | 410 kts | 247° |
| 2026-04-16 14:12 | -33.81087 | 152.62874 | 17509 ft | 408 kts | 247° |
| 2026-04-16 14:12 | -33.82309 | 152.59833 | 17249 ft | 407 kts | 247° |
| 2026-04-16 14:12 | -33.83543 | 152.56761 | 16988 ft | 406 kts | 247° |
| 2026-04-16 14:12 | -33.84770 | 152.53702 | 16732 ft | 405 kts | 247° |
| 2026-04-16 14:13 | -33.85992 | 152.50652 | 16479 ft | 404 kts | 247° |
| 2026-04-16 14:13 | -33.87194 | 152.47651 | 16231 ft | 403 kts | 247° |
| 2026-04-16 14:13 | -33.88411 | 152.44611 | 15974 ft | 402 kts | 247° |
| 2026-04-16 14:13 | -33.89624 | 152.41577 | 15730 ft | 401 kts | 247° |
| 2026-04-16 14:14 | -33.90830 | 152.38556 | 15489 ft | 400 kts | 247° |
| 2026-04-16 14:14 | -33.92033 | 152.35542 | 15225 ft | 394 kts | 247° |
| 2026-04-16 14:14 | -33.93177 | 152.32681 | 14776 ft | 373 kts | 247° |
| 2026-04-16 14:14 | -33.94290 | 152.29891 | 14228 ft | 369 kts | 247° |
| 2026-04-16 14:15 | -33.95408 | 152.27076 | 13629 ft | 371 kts | 246° |
| 2026-04-16 14:15 | -33.96507 | 152.24309 | 13046 ft | 370 kts | 246° |
| 2026-04-16 14:15 | -33.97616 | 152.21518 | 12469 ft | 368 kts | 246° |
| 2026-04-16 14:15 | -33.98718 | 152.18743 | 11894 ft | 365 kts | 246° |
| 2026-04-16 14:16 | -33.99815 | 152.15978 | 11342 ft | 363 kts | 246° |
| 2026-04-16 14:16 | -34.00886 | 152.13275 | 10808 ft | 361 kts | 246° |
| 2026-04-16 14:16 | -34.01932 | 152.10642 | 10620 ft | 333 kts | 246° |
| 2026-04-16 14:16 | -34.02802 | 152.08199 | 10550 ft | 302 kts | 253° |
| 2026-04-16 14:17 | -34.03212 | 152.05817 | 10417 ft | 277 kts | 267° |
| 2026-04-16 14:17 | -34.03169 | 152.03576 | 10293 ft | 259 kts | 275° |
| 2026-04-16 14:17 | -34.02979 | 152.01495 | 10161 ft | 247 kts | 277° |
| 2026-04-16 14:17 | -34.02764 | 151.99429 | 10058 ft | 248 kts | 277° |
| 2026-04-16 14:18 | -34.02546 | 151.97353 | 9955 ft | 250 kts | 277° |
| 2026-04-16 14:18 | -34.02332 | 151.95278 | 9721 ft | 249 kts | 277° |
| 2026-04-16 14:18 | -34.02122 | 151.93233 | 9476 ft | 248 kts | 277° |
| 2026-04-16 14:18 | -34.01912 | 151.91166 | 9250 ft | 248 kts | 277° |
| 2026-04-16 14:19 | -34.01703 | 151.89107 | 9016 ft | 247 kts | 277° |
| 2026-04-16 14:19 | -34.01493 | 151.87049 | 8795 ft | 246 kts | 277° |
| 2026-04-16 14:19 | -34.01284 | 151.84989 | 8583 ft | 246 kts | 277° |
| 2026-04-16 14:19 | -34.01078 | 151.82967 | 8368 ft | 245 kts | 277° |
| 2026-04-16 14:20 | -34.00870 | 151.80926 | 8164 ft | 245 kts | 277° |
| 2026-04-16 14:20 | -34.00642 | 151.78873 | 7994 ft | 253 kts | 280° |
| 2026-04-16 14:20 | -34.00105 | 151.76797 | 7761 ft | 264 kts | 292° |
| 2026-04-16 14:20 | -33.99324 | 151.74786 | 7515 ft | 265 kts | 295° |
| 2026-04-16 14:21 | -33.98498 | 151.72799 | 7287 ft | 264 kts | 295° |
| 2026-04-16 14:21 | -33.97684 | 151.70850 | 7071 ft | 263 kts | 295° |
| 2026-04-16 14:21 | -33.96863 | 151.68875 | 6852 ft | 263 kts | 295° |
| 2026-04-16 14:21 | -33.96048 | 151.66903 | 6618 ft | 262 kts | 295° |
| 2026-04-16 14:22 | -33.95234 | 151.64930 | 6385 ft | 262 kts | 295° |
| 2026-04-16 14:22 | -33.94424 | 151.62962 | 6162 ft | 262 kts | 295° |
| 2026-04-16 14:22 | -33.93624 | 151.61019 | 5944 ft | 263 kts | 295° |
| 2026-04-16 14:22 | -33.92810 | 151.59043 | 5729 ft | 263 kts | 295° |
| 2026-04-16 14:23 | -33.91999 | 151.57072 | 5503 ft | 262 kts | 295° |
| 2026-04-16 14:23 | -33.91190 | 151.55109 | 5286 ft | 261 kts | 295° |
| 2026-04-16 14:23 | -33.90386 | 151.53160 | 5095 ft | 252 kts | 294° |
| 2026-04-16 14:23 | -33.89632 | 151.51335 | 4930 ft | 235 kts | 294° |
| 2026-04-16 14:24 | -33.88922 | 151.49618 | 4728 ft | 223 kts | 294° |